sensor_id;sensor_type;location;lat;lon;timestamp;pressure;altitude;pressure_sealevel;temperature;humidity
69717;BME280;67420;46.144;19.666;2023-08-08T00:03:25;100229.66;;;24.95;52.58
69717;BME280;67420;46.144;19.666;2023-08-08T00:13:28;100242.28;;;24.94;52.67
69717;BME280;67420;46.144;19.666;2023-08-08T00:23:30;100249.53;;;24.94;52.89
69717;BME280;67420;46.144;19.666;2023-08-08T00:33:32;100254.06;;;24.93;52.52
69717;BME280;67420;46.144;19.666;2023-08-08T00:43:34;100249.38;;;24.95;52.56
69717;BME280;67420;46.144;19.666;2023-08-08T00:53:36;100257.47;;;24.95;52.77
69717;BME280;67420;46.144;19.666;2023-08-08T01:03:38;100267.09;;;24.98;52.07
69717;BME280;67420;46.144;19.666;2023-08-08T01:13:41;100267.56;;;24.93;52.37
69717;BME280;67420;46.144;19.666;2023-08-08T01:23:52;100266.56;;;24.94;52.47
69717;BME280;67420;46.144;19.666;2023-08-08T01:33:55;100260.16;;;24.95;52.23
69717;BME280;67420;46.144;19.666;2023-08-08T01:43:58;100264.56;;;24.96;52.24
69717;BME280;67420;46.144;19.666;2023-08-08T01:54:00;100275.94;;;24.90;51.63
69717;BME280;67420;46.144;19.666;2023-08-08T02:04:02;100280.72;;;24.96;51.26
69717;BME280;67420;46.144;19.666;2023-08-08T02:14:04;100270.56;;;24.90;51.39
69717;BME280;67420;46.144;19.666;2023-08-08T02:24:07;100277.13;;;24.88;51.66
69717;BME280;67420;46.144;19.666;2023-08-08T02:34:09;100290.97;;;24.93;51.57
69717;BME280;67420;46.144;19.666;2023-08-08T02:44:11;100299.06;;;24.93;51.58
69717;BME280;67420;46.144;19.666;2023-08-08T02:54:13;100298.22;;;24.92;51.17
69717;BME280;67420;46.144;19.666;2023-08-08T03:04:15;100308.63;;;24.87;51.34
69717;BME280;67420;46.144;19.666;2023-08-08T03:14:17;100301.53;;;24.86;51.23
69717;BME280;67420;46.144;19.666;2023-08-08T03:24:19;100322.78;;;24.89;51.56
69717;BME280;67420;46.144;19.666;2023-08-08T03:34:21;100332.72;;;24.89;51.37
69717;BME280;67420;46.144;19.666;2023-08-08T03:44:23;100330.19;;;24.87;51.09
69717;BME280;67420;46.144;19.666;2023-08-08T03:54:26;100329.19;;;24.88;51.13
69717;BME280;67420;46.144;19.666;2023-08-08T04:04:27;100329.34;;;24.87;50.80
69717;BME280;67420;46.144;19.666;2023-08-08T04:14:30;100334.19;;;24.83;51.21
69717;BME280;67420;46.144;19.666;2023-08-08T04:24:32;100349.53;;;24.83;51.22
69717;BME280;67420;46.144;19.666;2023-08-08T04:34:34;100367.09;;;24.87;51.40
69717;BME280;67420;46.144;19.666;2023-08-08T04:44:36;100358.47;;;24.83;51.55
69717;BME280;67420;46.144;19.666;2023-08-08T04:54:38;100375.31;;;24.85;51.62
69717;BME280;67420;46.144;19.666;2023-08-08T05:04:40;100382.88;;;24.82;51.85
69717;BME280;67420;46.144;19.666;2023-08-08T05:14:42;100396.19;;;24.83;51.83
69717;BME280;67420;46.144;19.666;2023-08-08T05:24:44;100399.34;;;24.79;51.78
69717;BME280;67420;46.144;19.666;2023-08-08T05:34:46;100420.91;;;24.79;51.89
69717;BME280;67420;46.144;19.666;2023-08-08T05:44:49;100430.69;;;24.80;51.89
69717;BME280;67420;46.144;19.666;2023-08-08T05:54:51;100434.84;;;24.74;52.14
69717;BME280;67420;46.144;19.666;2023-08-08T06:04:53;100441.09;;;24.75;52.31
69717;BME280;67420;46.144;19.666;2023-08-08T06:14:55;100433.78;;;24.67;52.22
69717;BME280;67420;46.144;19.666;2023-08-08T06:24:57;100439.16;;;24.67;52.37
69717;BME280;67420;46.144;19.666;2023-08-08T06:35:00;100424.84;;;24.66;51.40
69717;BME280;67420;46.144;19.666;2023-08-08T06:45:02;100431.59;;;24.70;51.52
69717;BME280;67420;46.144;19.666;2023-08-08T06:55:05;100423.66;;;24.69;51.05
69717;BME280;67420;46.144;19.666;2023-08-08T07:05:07;100426.34;;;24.69;51.04
69717;BME280;67420;46.144;19.666;2023-08-08T07:15:09;100443.84;;;24.65;51.06
69717;BME280;67420;46.144;19.666;2023-08-08T07:25:12;100443.69;;;24.66;50.48
69717;BME280;67420;46.144;19.666;2023-08-08T07:35:14;100447.53;;;24.64;50.84
69717;BME280;67420;46.144;19.666;2023-08-08T07:45:18;100455.19;;;24.68;50.26
69717;BME280;67420;46.144;19.666;2023-08-08T07:55:20;100443.31;;;24.61;50.42
69717;BME280;67420;46.144;19.666;2023-08-08T08:05:22;100471.81;;;24.64;50.09
69717;BME280;67420;46.144;19.666;2023-08-08T08:15:25;100460.31;;;24.62;50.56
69717;BME280;67420;46.144;19.666;2023-08-08T08:25:28;100464.56;;;24.64;50.26
69717;BME280;67420;46.144;19.666;2023-08-08T08:35:30;100473.66;;;24.63;50.29
69717;BME280;67420;46.144;19.666;2023-08-08T08:45:37;100464.72;;;24.63;50.16
69717;BME280;67420;46.144;19.666;2023-08-08T08:55:39;100447.84;;;24.61;49.99
69717;BME280;67420;46.144;19.666;2023-08-08T09:05:42;100446.56;;;24.65;49.79
69717;BME280;67420;46.144;19.666;2023-08-08T09:15:47;100444.84;;;24.64;49.61
69717;BME280;67420;46.144;19.666;2023-08-08T09:25:51;100453.50;;;24.67;49.39
69717;BME280;67420;46.144;19.666;2023-08-08T09:35:53;100445.22;;;24.69;49.34
69717;BME280;67420;46.144;19.666;2023-08-08T09:45:56;100454.00;;;24.71;49.11
69717;BME280;67420;46.144;19.666;2023-08-08T09:55:59;100443.69;;;24.66;49.13
69717;BME280;67420;46.144;19.666;2023-08-08T10:06:01;100445.56;;;24.66;49.12
69717;BME280;67420;46.144;19.666;2023-08-08T10:16:09;100441.16;;;24.65;48.98
69717;BME280;67420;46.144;19.666;2023-08-08T10:26:20;100429.28;;;24.58;48.83
69717;BME280;67420;46.144;19.666;2023-08-08T10:36:22;100447.69;;;24.62;48.41
69717;BME280;67420;46.144;19.666;2023-08-08T10:46:28;100422.59;;;24.62;48.83
69717;BME280;67420;46.144;19.666;2023-08-08T10:56:30;100416.66;;;24.58;48.71
69717;BME280;67420;46.144;19.666;2023-08-08T11:06:34;100407.56;;;24.59;48.62
69717;BME280;67420;46.144;19.666;2023-08-08T11:16:37;100409.56;;;24.57;48.33
69717;BME280;67420;46.144;19.666;2023-08-08T11:26:40;100402.91;;;24.52;48.46
69717;BME280;67420;46.144;19.666;2023-08-08T11:36:43;100399.06;;;24.54;48.26
69717;BME280;67420;46.144;19.666;2023-08-08T11:46:45;100396.22;;;24.56;48.09
69717;BME280;67420;46.144;19.666;2023-08-08T11:56:51;100381.34;;;24.52;48.11
69717;BME280;67420;46.144;19.666;2023-08-08T12:07:02;100387.16;;;24.57;47.80
69717;BME280;67420;46.144;19.666;2023-08-08T12:17:05;100371.28;;;24.54;48.31
69717;BME280;67420;46.144;19.666;2023-08-08T12:27:08;100366.03;;;24.52;47.72
69717;BME280;67420;46.144;19.666;2023-08-08T12:37:10;100361.25;;;24.46;47.82
69717;BME280;67420;46.144;19.666;2023-08-08T12:47:12;100360.09;;;24.49;47.65
69717;BME280;67420;46.144;19.666;2023-08-08T12:57:16;100360.50;;;24.54;47.63
69717;BME280;67420;46.144;19.666;2023-08-08T13:07:18;100348.88;;;24.53;47.67
69717;BME280;67420;46.144;19.666;2023-08-08T13:17:20;100329.75;;;24.47;47.53
69717;BME280;67420;46.144;19.666;2023-08-08T13:27:22;100327.91;;;24.47;47.39
69717;BME280;67420;46.144;19.666;2023-08-08T13:37:25;100340.94;;;24.52;47.37
69717;BME280;67420;46.144;19.666;2023-08-08T13:47:27;100337.53;;;24.50;47.62
69717;BME280;67420;46.144;19.666;2023-08-08T13:57:29;100333.84;;;24.51;47.15
69717;BME280;67420;46.144;19.666;2023-08-08T14:07:31;100315.28;;;24.48;47.11
69717;BME280;67420;46.144;19.666;2023-08-08T14:17:33;100335.94;;;24.57;47.03
69717;BME280;67420;46.144;19.666;2023-08-08T14:27:35;100322.91;;;24.52;47.14
69717;BME280;67420;46.144;19.666;2023-08-08T14:37:37;100329.56;;;24.58;47.22
69717;BME280;67420;46.144;19.666;2023-08-08T14:47:39;100324.16;;;24.58;47.05
69717;BME280;67420;46.144;19.666;2023-08-08T14:57:42;100324.00;;;24.59;47.24
69717;BME280;67420;46.144;19.666;2023-08-08T15:07:43;100325.72;;;24.60;46.96
69717;BME280;67420;46.144;19.666;2023-08-08T15:17:46;100316.78;;;24.60;47.86
69717;BME280;67420;46.144;19.666;2023-08-08T15:27:48;100307.16;;;24.57;48.17
69717;BME280;67420;46.144;19.666;2023-08-08T15:37:50;100308.53;;;24.61;47.92
69717;BME280;67420;46.144;19.666;2023-08-08T15:47:52;100313.38;;;24.58;47.83
69717;BME280;67420;46.144;19.666;2023-08-08T15:57:55;100308.53;;;24.61;48.10
69717;BME280;67420;46.144;19.666;2023-08-08T16:07:57;100312.94;;;24.62;47.99
69717;BME280;67420;46.144;19.666;2023-08-08T16:17:59;100322.16;;;24.60;48.12
69717;BME280;67420;46.144;19.666;2023-08-08T16:28:02;100311.84;;;24.55;47.53
69717;BME280;67420;46.144;19.666;2023-08-08T16:38:05;100313.38;;;24.58;47.71
69717;BME280;67420;46.144;19.666;2023-08-08T16:48:08;100317.63;;;24.60;48.16
69717;BME280;67420;46.144;19.666;2023-08-08T16:58:11;100316.47;;;24.63;48.10
69717;BME280;67420;46.144;19.666;2023-08-08T17:08:13;100323.56;;;24.64;48.35
69717;BME280;67420;46.144;19.666;2023-08-08T17:18:15;100315.78;;;24.61;48.01
69717;BME280;67420;46.144;19.666;2023-08-08T17:28:17;100322.00;;;24.61;48.11
69717;BME280;67420;46.144;19.666;2023-08-08T17:38:20;100327.56;;;24.60;47.92
69717;BME280;67420;46.144;19.666;2023-08-08T17:48:22;100322.75;;;24.54;47.78
69717;BME280;67420;46.144;19.666;2023-08-08T17:58:25;100337.47;;;24.59;47.81
69717;BME280;67420;46.144;19.666;2023-08-08T18:08:26;100341.34;;;24.57;47.61
69717;BME280;67420;46.144;19.666;2023-08-08T18:18:29;100352.09;;;24.57;47.69
69717;BME280;67420;46.144;19.666;2023-08-08T18:28:32;100365.59;;;24.57;47.76
69717;BME280;67420;46.144;19.666;2023-08-08T18:38:34;100375.50;;;24.56;47.94
69717;BME280;67420;46.144;19.666;2023-08-08T18:48:36;100384.44;;;24.57;47.61
69717;BME280;67420;46.144;19.666;2023-08-08T18:58:38;100401.63;;;24.56;47.87
69717;BME280;67420;46.144;19.666;2023-08-08T19:08:42;100393.53;;;24.56;48.00
69717;BME280;67420;46.144;19.666;2023-08-08T19:18:45;100406.00;;;24.57;47.85
69717;BME280;67420;46.144;19.666;2023-08-08T19:28:47;100403.75;;;24.52;47.85
69717;BME280;67420;46.144;19.666;2023-08-08T19:38:50;100403.63;;;24.54;48.41
69717;BME280;67420;46.144;19.666;2023-08-08T19:48:52;100404.47;;;24.54;48.57
69717;BME280;67420;46.144;19.666;2023-08-08T19:58:54;100408.16;;;24.53;48.58
69717;BME280;67420;46.144;19.666;2023-08-08T20:08:56;100415.78;;;24.58;49.07
69717;BME280;67420;46.144;19.666;2023-08-08T20:18:58;100406.47;;;24.52;48.88
69717;BME280;67420;46.144;19.666;2023-08-08T20:29:00;100413.41;;;24.55;48.72
69717;BME280;67420;46.144;19.666;2023-08-08T20:39:04;100408.16;;;24.53;49.83
69717;BME280;67420;46.144;19.666;2023-08-08T20:49:06;100421.47;;;24.55;49.69
69717;BME280;67420;46.144;19.666;2023-08-08T20:59:08;100428.72;;;24.54;50.03
69717;BME280;67420;46.144;19.666;2023-08-08T21:09:10;100415.53;;;24.51;50.11
69717;BME280;67420;46.144;19.666;2023-08-08T21:19:12;100417.53;;;24.49;50.46
69717;BME280;67420;46.144;19.666;2023-08-08T21:29:14;100415.53;;;24.51;50.35
69717;BME280;67420;46.144;19.666;2023-08-08T21:39:16;100413.53;;;24.53;50.66
69717;BME280;67420;46.144;19.666;2023-08-08T21:49:19;100413.53;;;24.53;50.77
69717;BME280;67420;46.144;19.666;2023-08-08T21:59:22;100403.63;;;24.54;50.73
69717;BME280;67420;46.144;19.666;2023-08-08T22:09:23;100408.31;;;24.52;50.66
69717;BME280;67420;46.144;19.666;2023-08-08T22:19:29;100398.53;;;24.51;51.10
69717;BME280;67420;46.144;19.666;2023-08-08T22:29:32;100387.19;;;24.47;50.92
69717;BME280;67420;46.144;19.666;2023-08-08T22:39:34;100393.13;;;24.51;50.82
69717;BME280;67420;46.144;19.666;2023-08-08T22:49:36;100384.91;;;24.52;50.92
69717;BME280;67420;46.144;19.666;2023-08-08T22:59:38;100377.81;;;24.51;51.02
69717;BME280;67420;46.144;19.666;2023-08-08T23:09:40;100383.06;;;24.53;51.00
69717;BME280;67420;46.144;19.666;2023-08-08T23:19:43;100379.50;;;24.52;51.14
69717;BME280;67420;46.144;19.666;2023-08-08T23:29:45;100377.97;;;24.50;51.26
69717;BME280;67420;46.144;19.666;2023-08-08T23:39:47;100366.03;;;24.52;51.21
69717;BME280;67420;46.144;19.666;2023-08-08T23:49:49;100358.09;;;24.51;51.20
69717;BME280;67420;46.144;19.666;2023-08-08T23:59:51;100368.88;;;24.51;51.05
